createdAt,value
2018-06-19T00:01:52.138Z,15.75
2018-06-19T00:04:21.659Z,15.67
2018-06-19T00:06:51.142Z,15.60
2018-06-19T00:09:20.366Z,15.52
2018-06-19T00:11:49.598Z,15.49
2018-06-19T00:14:19.135Z,15.44
2018-06-19T00:16:49.381Z,15.43
2018-06-19T00:19:19.018Z,15.46
2018-06-19T00:21:53.498Z,15.44
2018-06-19T00:24:23.010Z,15.44
2018-06-19T00:26:52.239Z,15.46
2018-06-19T00:29:24.554Z,15.45
2018-06-19T00:31:53.759Z,15.48
2018-06-19T00:34:23.818Z,15.52
2018-06-19T00:36:53.319Z,15.47
2018-06-19T00:39:24.555Z,15.47
2018-06-19T00:41:53.762Z,15.61
2018-06-19T00:44:22.974Z,15.65
2018-06-19T00:46:53.338Z,15.69
2018-06-19T00:49:22.551Z,15.61
2018-06-19T00:51:51.739Z,15.52
2018-06-19T00:54:20.967Z,15.52
2018-06-19T00:56:55.200Z,15.53
2018-06-19T00:59:25.898Z,15.56
2018-06-19T01:01:57.510Z,15.54
2018-06-19T01:04:26.741Z,15.50
2018-06-19T01:06:55.955Z,15.49
2018-06-19T01:09:26.307Z,15.40
2018-06-19T01:11:55.967Z,15.41
2018-06-19T01:14:25.264Z,15.39
2018-06-19T01:16:54.458Z,15.26
2018-06-19T01:19:23.707Z,15.22
2018-06-19T01:21:52.882Z,15.18
2018-06-19T01:24:22.999Z,15.11
2018-06-19T01:26:52.586Z,15.13
2018-06-19T01:29:22.033Z,15.11
2018-06-19T01:31:52.131Z,14.98
2018-06-19T01:34:21.603Z,14.95
2018-06-19T01:36:50.987Z,14.90
2018-06-19T01:39:20.196Z,14.88
2018-06-19T01:41:50.115Z,14.84
2018-06-19T01:44:19.790Z,14.80
2018-06-19T01:46:48.995Z,14.85
2018-06-19T01:49:18.505Z,14.78
2018-06-19T01:51:47.990Z,14.79
2018-06-19T01:54:17.537Z,14.73
2018-06-19T01:56:46.733Z,14.67
2018-06-19T01:59:15.934Z,14.59
2018-06-19T02:01:45.437Z,14.62
2018-06-19T02:04:14.651Z,14.57
2018-06-19T02:06:44.554Z,14.54
2018-06-19T02:09:14.192Z,14.58
2018-06-19T02:11:43.391Z,14.63
2018-06-19T02:14:12.622Z,14.61
2018-06-19T02:16:42.415Z,14.56
2018-06-19T02:19:11.995Z,14.54
2018-06-19T02:21:41.186Z,14.49
2018-06-19T02:24:11.419Z,14.51
2018-06-19T02:26:40.622Z,14.53
2018-06-19T02:29:09.858Z,14.56
2018-06-19T02:31:39.772Z,14.59
2018-06-19T02:34:09.009Z,14.52
2018-06-19T02:36:38.199Z,14.50
2018-06-19T02:39:09.495Z,14.49
2018-06-19T02:41:39.714Z,14.44
2018-06-19T02:44:09.595Z,14.41
2018-06-19T02:46:39.199Z,14.35
2018-06-19T02:49:10.543Z,14.35
2018-06-19T02:51:39.751Z,14.31
2018-06-19T02:54:08.976Z,14.30
2018-06-19T02:56:39.220Z,14.27
2018-06-19T02:59:08.747Z,14.23
2018-06-19T03:01:39.067Z,14.24
2018-06-19T03:04:08.284Z,14.23
2018-06-19T03:07:40.455Z,14.22
2018-06-19T03:10:09.697Z,14.14
2018-06-19T03:12:39.163Z,14.09
2018-06-19T03:15:08.620Z,14.07
2018-06-19T03:17:37.854Z,14.05
2018-06-19T03:20:07.151Z,14.08
2018-06-19T03:22:36.411Z,14.05
2018-06-19T03:25:05.639Z,14.13
2018-06-19T03:27:34.847Z,14.10
2018-06-19T03:30:05.041Z,14.19
2018-06-19T03:32:34.892Z,14.16
2018-06-19T03:35:04.126Z,14.13
2018-06-19T03:37:33.278Z,14.15
2018-06-19T03:40:02.935Z,14.12
2018-06-19T03:42:32.136Z,14.08
2018-06-19T03:45:01.786Z,14.10
2018-06-19T03:47:31.795Z,14.11
2018-06-19T03:50:01.627Z,14.12
2018-06-19T03:52:30.827Z,14.12
2018-06-19T03:55:00.419Z,14.18
2018-06-19T03:57:29.987Z,14.23
2018-06-19T03:59:59.187Z,14.30
2018-06-19T04:02:28.415Z,14.26
2018-06-19T04:04:57.835Z,14.32
2018-06-19T04:07:27.499Z,14.30
2018-06-19T04:09:56.694Z,14.30
2018-06-19T04:12:26.614Z,14.34
2018-06-19T04:14:56.183Z,14.28
2018-06-19T04:17:27.436Z,14.28
2018-06-19T04:19:58.254Z,14.40
2018-06-19T04:22:29.414Z,14.36
2018-06-19T04:24:59.819Z,14.38
2018-06-19T04:27:29.087Z,14.44
2018-06-19T04:29:58.275Z,14.49
2018-06-19T04:32:27.810Z,14.49
2018-06-19T04:34:57.352Z,14.64
2018-06-19T04:37:26.943Z,14.72
2018-06-19T04:39:56.371Z,14.71
2018-06-19T04:42:25.585Z,14.77
2018-06-19T04:44:55.000Z,14.82
2018-06-19T04:47:24.179Z,14.82
2018-06-19T04:49:55.399Z,14.87
2018-06-19T04:52:24.611Z,15.03
2018-06-19T04:54:54.253Z,15.14
2018-06-19T04:57:23.495Z,15.15
2018-06-19T04:59:52.677Z,15.16
2018-06-19T05:02:21.900Z,15.24
2018-06-19T05:04:51.439Z,15.34
2018-06-19T05:07:21.070Z,15.41
2018-06-19T05:09:50.258Z,15.31
2018-06-19T05:12:19.465Z,15.39
2018-06-19T05:14:49.974Z,15.39
2018-06-19T05:17:19.183Z,15.41
2018-06-19T05:19:48.586Z,15.70
2018-06-19T05:22:17.812Z,15.74
2018-06-19T05:24:46.991Z,15.92
2018-06-19T05:27:17.395Z,16.28
2018-06-19T05:29:46.591Z,16.20
2018-06-19T05:32:16.071Z,16.30
2018-06-19T05:34:45.631Z,16.30
2018-06-19T05:37:14.830Z,16.53
2018-06-19T05:39:44.438Z,16.50
2018-06-19T05:42:13.635Z,16.64
2018-06-19T05:44:43.319Z,16.87
2018-06-19T05:47:12.516Z,17.64
2018-06-19T05:49:42.762Z,17.96
2018-06-19T05:52:12.230Z,18.18
2018-06-19T05:54:41.776Z,17.90
2018-06-19T05:57:10.958Z,17.63
2018-06-19T05:59:40.672Z,17.70
2018-06-19T06:02:09.850Z,17.68
2018-06-19T06:04:39.067Z,17.07
2018-06-19T06:07:08.277Z,16.77
2018-06-19T06:09:37.520Z,16.77
2018-06-19T06:12:06.719Z,17.14
2018-06-19T06:14:36.510Z,17.31
2018-06-19T06:17:05.963Z,17.34
2018-06-19T06:19:35.587Z,17.08
2018-06-19T06:22:05.185Z,17.19
2018-06-19T06:24:34.355Z,16.86
2018-06-19T06:27:03.576Z,16.71
2018-06-19T06:29:32.991Z,16.78
2018-06-19T06:32:02.591Z,17.14
2018-06-19T06:34:31.823Z,16.92
2018-06-19T06:37:01.020Z,17.41
2018-06-19T06:39:30.699Z,17.84
2018-06-19T06:41:59.879Z,17.83
2018-06-19T06:44:29.743Z,17.75
2018-06-19T06:46:59.151Z,18.22
2018-06-19T06:49:28.466Z,18.03
2018-06-19T06:51:57.666Z,18.60
2018-06-19T06:54:26.879Z,18.66
2018-06-19T06:56:58.863Z,18.62
2018-06-19T06:59:28.134Z,18.90
2018-06-19T07:01:57.698Z,18.90
2018-06-19T07:04:27.102Z,19.03
2018-06-19T07:06:56.267Z,19.49
2018-06-19T07:09:26.211Z,19.51
2018-06-19T07:11:55.687Z,18.97
2018-06-19T07:14:26.396Z,18.28
2018-06-19T07:16:55.594Z,18.39
2018-06-19T07:19:25.820Z,18.56
2018-06-19T07:21:54.959Z,18.83
2018-06-19T07:24:24.558Z,18.22
2018-06-19T07:26:54.211Z,18.92
2018-06-19T07:29:23.883Z,19.23
2018-06-19T07:31:53.512Z,19.21
2018-06-19T07:34:23.094Z,19.09
2018-06-19T07:36:53.059Z,19.15
2018-06-19T07:39:22.387Z,19.06
2018-06-19T07:41:52.043Z,19.37
2018-06-19T07:44:21.256Z,19.30
2018-06-19T07:46:50.570Z,19.64
2018-06-19T07:49:19.879Z,19.38
2018-06-19T07:51:49.139Z,19.90
2018-06-19T07:54:18.555Z,20.44
2018-06-19T07:56:47.783Z,20.86
2018-06-19T07:59:17.070Z,20.49
2018-06-19T08:01:46.299Z,19.28
2018-06-19T08:04:15.630Z,19.59
2018-06-19T08:06:44.843Z,20.12
2018-06-19T08:09:14.023Z,20.61
2018-06-19T08:11:43.219Z,20.27
2018-06-19T08:14:12.414Z,20.09
2018-06-19T08:16:41.631Z,20.20
2018-06-19T08:19:11.063Z,20.74
2018-06-19T08:21:40.295Z,20.96
2018-06-19T08:24:09.547Z,21.94
2018-06-19T08:26:38.766Z,21.65
2018-06-19T08:29:09.020Z,21.15
2018-06-19T08:31:39.273Z,21.78
2018-06-19T08:34:08.490Z,22.27
2018-06-19T08:36:38.238Z,22.01
2018-06-19T08:39:10.242Z,22.72
2018-06-19T08:41:39.672Z,23.02
2018-06-19T08:44:08.871Z,23.38
2018-06-19T08:46:39.296Z,22.95
2018-06-19T08:49:09.191Z,22.61
2018-06-19T08:51:38.382Z,23.80
2018-06-19T08:54:08.060Z,24.45
2018-06-19T08:56:38.327Z,24.64
2018-06-19T08:59:07.531Z,24.69
2018-06-19T09:01:36.765Z,24.94
2018-06-19T09:04:06.371Z,24.53
2018-06-19T09:06:37.547Z,24.33
2018-06-19T09:09:12.282Z,24.48
2018-06-19T09:11:41.541Z,24.84
2018-06-19T09:14:10.754Z,24.81
2018-06-19T09:16:39.943Z,24.90
2018-06-19T09:19:10.382Z,24.58
2018-06-19T09:21:39.567Z,25.33
2018-06-19T09:24:09.179Z,25.09
2018-06-19T09:26:38.738Z,24.22
2018-06-19T09:29:07.939Z,24.18
2018-06-19T09:31:37.213Z,24.65
2018-06-19T09:34:06.483Z,24.70
2018-06-19T09:36:36.202Z,25.21
2018-06-19T09:39:07.791Z,25.19
2018-06-19T09:41:36.970Z,25.33
2018-06-19T09:44:06.306Z,25.01
2018-06-19T09:46:35.503Z,24.55
2018-06-19T09:49:04.867Z,24.13
2018-06-19T09:51:34.707Z,24.10
2018-06-19T09:54:04.288Z,24.52
2018-06-19T09:56:33.572Z,24.56
2018-06-19T09:59:03.177Z,24.72
2018-06-19T10:01:32.731Z,25.24
2018-06-19T10:04:03.054Z,24.82
2018-06-19T10:06:32.268Z,24.61
2018-06-19T10:09:01.471Z,23.74
2018-06-19T10:11:33.152Z,23.77
2018-06-19T10:14:08.991Z,22.73
2018-06-19T10:16:39.636Z,22.54
2018-06-19T10:19:11.222Z,22.54
2018-06-19T10:21:40.452Z,22.06
2018-06-19T10:24:10.662Z,21.95
2018-06-19T10:26:39.870Z,22.29
2018-06-19T10:29:09.392Z,22.37
2018-06-19T10:31:39.114Z,21.93
2018-06-19T10:34:08.438Z,21.89
2018-06-19T10:36:38.583Z,22.57
2018-06-19T10:39:09.454Z,23.33
2018-06-19T10:41:38.719Z,24.68
2018-06-19T10:44:08.275Z,24.41
2018-06-19T10:46:37.799Z,25.90
2018-06-19T10:49:07.291Z,25.78
2018-06-19T10:51:36.547Z,24.32
2018-06-19T10:54:05.715Z,25.18
2018-06-19T10:56:35.159Z,25.73
2018-06-19T10:59:04.346Z,24.44
2018-06-19T11:01:33.820Z,23.97
2018-06-19T11:04:03.603Z,22.98
2018-06-19T11:06:34.160Z,22.57
2018-06-19T11:09:05.572Z,21.97
2018-06-19T11:11:34.859Z,21.71
2018-06-19T11:14:05.867Z,21.02
2018-06-19T11:16:35.087Z,20.94
2018-06-19T11:19:04.284Z,20.77
2018-06-19T11:21:34.571Z,20.65
2018-06-19T11:24:03.812Z,20.77
2018-06-19T11:26:33.186Z,20.88
2018-06-19T11:29:02.442Z,20.65
2018-06-19T11:31:31.884Z,20.48
2018-06-19T11:34:01.103Z,20.45
2018-06-19T11:36:30.694Z,20.61
2018-06-19T11:39:00.819Z,20.99
2018-06-19T11:41:30.053Z,21.22
2018-06-19T11:43:59.251Z,21.76
2018-06-19T11:46:28.755Z,21.90
2018-06-19T11:48:58.255Z,22.17
2018-06-19T11:51:27.842Z,21.94
2018-06-19T11:53:57.058Z,22.23
2018-06-19T11:56:26.523Z,22.16
2018-06-19T11:58:55.763Z,22.33
2018-06-19T12:01:25.227Z,22.53
2018-06-19T12:03:54.458Z,22.86
2018-06-19T12:06:23.879Z,23.22
2018-06-19T12:08:53.173Z,23.01
2018-06-19T12:11:22.721Z,22.71
2018-06-19T12:13:51.954Z,23.02
2018-06-19T12:16:21.130Z,22.50
2018-06-19T12:18:50.342Z,22.50
2018-06-19T12:21:19.532Z,22.72
2018-06-19T12:23:48.816Z,23.10
2018-06-19T12:26:18.253Z,23.74
2018-06-19T12:28:47.499Z,23.40
2018-06-19T12:31:17.135Z,23.22
2018-06-19T12:33:46.664Z,22.75
2018-06-19T12:36:15.858Z,23.02
2018-06-19T12:38:45.542Z,23.33
2018-06-19T12:41:14.735Z,24.10
2018-06-19T12:43:44.183Z,24.36
2018-06-19T12:46:13.384Z,24.39
2018-06-19T12:48:43.523Z,24.97
2018-06-19T12:51:54.222Z,24.86
2018-06-19T12:54:41.114Z,25.76
2018-06-19T12:57:10.668Z,25.50
2018-06-19T12:59:40.082Z,25.38
2018-06-19T13:02:09.251Z,23.88
2018-06-19T13:04:50.263Z,23.71
2018-06-19T13:07:19.472Z,23.09
2018-06-19T13:09:49.035Z,23.39
2018-06-19T13:12:29.400Z,23.49
2018-06-19T13:14:58.612Z,23.50
2018-06-19T13:17:38.987Z,23.65
2018-06-19T13:20:19.790Z,24.17
2018-06-19T13:22:48.967Z,24.11
2018-06-19T13:25:18.173Z,24.61
2018-06-19T13:27:47.347Z,24.66
2018-06-19T13:30:28.078Z,24.59
2018-06-19T13:32:57.830Z,24.53
2018-06-19T13:35:27.087Z,24.47
2018-06-19T13:37:56.234Z,25.02
2018-06-19T13:41:02.077Z,25.00
2018-06-19T13:43:42.830Z,25.60
2018-06-19T13:46:12.578Z,26.24
2018-06-19T13:48:42.424Z,25.85
2018-06-19T13:51:12.396Z,26.20
2018-06-19T13:53:42.395Z,26.01
2018-06-19T13:57:35.235Z,26.44
2018-06-19T14:00:06.991Z,26.39
2018-06-19T14:02:36.194Z,26.12
2018-06-19T14:05:06.267Z,26.40
2018-06-19T14:07:41.534Z,26.03
2018-06-19T14:10:21.982Z,25.67
2018-06-19T14:13:05.444Z,26.46
2018-06-19T14:15:37.610Z,27.60
2018-06-19T14:18:07.470Z,27.42
2018-06-19T14:20:36.947Z,25.71
2018-06-19T14:23:06.480Z,25.12
2018-06-19T14:25:36.112Z,25.19
2018-06-19T14:28:06.044Z,25.54
2018-06-19T14:30:35.243Z,25.70
2018-06-19T14:33:05.131Z,25.29
2018-06-19T14:35:34.518Z,24.98
2018-06-19T14:38:04.494Z,25.69
2018-06-19T14:40:33.937Z,25.98
2018-06-19T14:43:05.109Z,25.80
2018-06-19T14:45:35.106Z,25.29
2018-06-19T14:48:04.338Z,24.62
2018-06-19T14:50:33.539Z,24.18
2018-06-19T14:53:02.755Z,24.66
2018-06-19T14:55:32.167Z,24.34
2018-06-19T14:58:01.758Z,24.52
2018-06-19T15:00:31.088Z,24.92
2018-06-19T15:03:00.650Z,25.04
2018-06-19T15:05:29.831Z,25.67
2018-06-19T15:07:59.051Z,25.23
2018-06-19T15:10:28.284Z,25.63
2018-06-19T15:12:57.738Z,25.54
2018-06-19T15:15:27.791Z,25.52
2018-06-19T15:17:57.318Z,25.79
2018-06-19T15:20:26.512Z,26.04
2018-06-19T15:22:56.351Z,25.60
2018-06-19T15:25:25.875Z,25.20
2018-06-19T15:27:55.046Z,25.22
2018-06-19T15:30:24.694Z,25.29
2018-06-19T15:32:53.875Z,25.10
2018-06-19T15:35:23.204Z,25.15
2018-06-19T15:37:52.822Z,24.61
2018-06-19T15:40:22.087Z,24.98
2018-06-19T15:42:51.626Z,25.16
2018-06-19T15:45:21.839Z,25.19
2018-06-19T15:47:51.760Z,24.86
2018-06-19T15:50:20.976Z,24.80
2018-06-19T15:52:50.392Z,25.18
2018-06-19T15:55:19.987Z,25.25
2018-06-19T15:57:49.627Z,25.46
2018-06-19T16:00:19.067Z,25.07
2018-06-19T16:02:49.269Z,25.31
2018-06-19T16:05:18.483Z,25.12
2018-06-19T16:07:53.282Z,25.02
2018-06-19T16:10:23.247Z,24.77
2018-06-19T16:12:52.436Z,24.48
2018-06-19T16:15:22.258Z,24.51
2018-06-19T16:17:51.677Z,24.36
2018-06-19T16:20:21.079Z,24.49
2018-06-19T16:22:51.319Z,24.20
2018-06-19T16:25:20.531Z,23.98
2018-06-19T16:27:50.609Z,23.86
2018-06-19T16:30:19.835Z,23.21
2018-06-19T16:32:49.183Z,23.49
2018-06-19T16:35:18.604Z,23.70
2018-06-19T16:37:48.260Z,24.30
2018-06-19T16:40:17.467Z,24.29
2018-06-19T16:42:47.902Z,24.25
2018-06-19T16:45:17.321Z,24.37
2018-06-19T16:47:46.481Z,24.64
2018-06-19T16:50:16.020Z,24.26
2018-06-19T16:52:45.626Z,23.92
2018-06-19T16:55:14.856Z,24.09
2018-06-19T16:57:44.072Z,24.19
2018-06-19T17:00:13.263Z,24.21
2018-06-19T17:02:42.454Z,24.15
2018-06-19T17:05:11.671Z,24.02
2018-06-19T17:07:42.778Z,24.00
2018-06-19T17:10:13.011Z,23.88
2018-06-19T17:12:43.050Z,23.87
2018-06-19T17:15:12.435Z,23.84
2018-06-19T17:17:42.668Z,23.83
2018-06-19T17:20:12.107Z,23.46
2018-06-19T17:22:41.535Z,23.32
2018-06-19T17:25:10.726Z,23.23
2018-06-19T17:27:41.522Z,23.15
2018-06-19T17:30:11.034Z,23.14
2018-06-19T17:32:40.303Z,22.99
2018-06-19T17:35:09.492Z,22.92
2018-06-19T17:37:38.710Z,22.80
2018-06-19T17:40:07.927Z,22.69
2018-06-19T17:42:37.149Z,22.65
2018-06-19T17:45:10.687Z,22.72
2018-06-19T17:47:40.126Z,22.80
2018-06-19T17:50:09.683Z,22.55
2018-06-19T17:52:38.890Z,22.70
2018-06-19T17:55:08.496Z,22.64
2018-06-19T17:57:37.707Z,22.57
2018-06-19T18:00:06.920Z,22.31
2018-06-19T18:02:36.934Z,22.23
2018-06-19T18:05:06.424Z,22.21
2018-06-19T18:07:36.254Z,22.11
2018-06-19T18:10:05.472Z,22.03
2018-06-19T18:12:34.674Z,22.03
2018-06-19T18:15:03.944Z,21.96
2018-06-19T18:17:33.130Z,21.96
2018-06-19T18:20:02.352Z,21.90
2018-06-19T18:22:31.530Z,21.87
2018-06-19T18:25:00.967Z,21.88
2018-06-19T18:27:30.499Z,21.87
2018-06-19T18:29:59.711Z,21.73
2018-06-19T18:32:28.958Z,21.76
2018-06-19T18:34:58.774Z,21.71
2018-06-19T18:37:27.962Z,21.58
2018-06-19T18:39:57.888Z,21.53
2018-06-19T18:42:27.172Z,21.40
2018-06-19T18:44:57.677Z,21.39
2018-06-19T18:47:26.893Z,21.33
2018-06-19T18:49:56.100Z,21.31
2018-06-19T18:52:25.497Z,21.22
2018-06-19T18:54:55.878Z,21.15
2018-06-19T18:57:25.330Z,21.08
2018-06-19T18:59:54.565Z,21.04
2018-06-19T19:02:23.731Z,21.00
2018-06-19T19:04:53.074Z,20.98
2018-06-19T19:07:23.191Z,20.94
2018-06-19T19:09:57.791Z,20.87
2018-06-19T19:12:26.976Z,20.85
2018-06-19T19:15:01.951Z,20.74
2018-06-19T19:17:36.541Z,20.48
2018-06-19T19:20:06.488Z,20.34
2018-06-19T19:22:36.042Z,20.31
2018-06-19T19:25:10.885Z,20.26
2018-06-19T19:29:47.967Z,20.13
2018-06-19T19:32:19.127Z,19.83
2018-06-19T19:34:48.675Z,19.77
2018-06-19T19:37:23.133Z,19.63
2018-06-19T19:39:52.643Z,19.58
2018-06-19T19:42:21.845Z,19.54
2018-06-19T19:44:52.387Z,19.43
2018-06-19T19:47:26.881Z,19.30
2018-06-19T19:49:56.103Z,19.21
2018-06-19T19:52:26.396Z,19.08
2018-06-19T19:54:56.390Z,18.97
2018-06-19T19:57:30.919Z,18.79
2018-06-19T20:00:00.495Z,18.70
2018-06-19T20:02:29.708Z,18.63
2018-06-19T20:04:59.290Z,18.61
2018-06-19T20:07:28.859Z,18.62
2018-06-19T20:09:58.507Z,18.55
2018-06-19T20:12:28.129Z,18.43
2018-06-19T20:14:57.347Z,18.39
2018-06-19T20:17:27.511Z,18.29
2018-06-19T20:19:57.152Z,18.29
2018-06-19T20:22:26.492Z,18.33
2018-06-19T20:24:56.091Z,18.24
2018-06-19T20:27:25.364Z,18.28
2018-06-19T20:29:54.678Z,18.31
2018-06-19T20:32:25.038Z,18.36
2018-06-19T20:34:54.364Z,18.38
2018-06-19T20:37:23.595Z,18.34
2018-06-19T20:39:53.095Z,18.33
2018-06-19T20:42:22.320Z,18.39
2018-06-19T20:44:52.250Z,18.48
2018-06-19T20:47:21.500Z,18.47
2018-06-19T20:49:51.236Z,18.52
2018-06-19T20:52:21.464Z,18.62
2018-06-19T20:54:50.647Z,18.68
2018-06-19T20:57:20.784Z,18.72
2018-06-19T20:59:50.211Z,18.72
2018-06-19T21:02:19.712Z,18.66
2018-06-19T21:04:49.767Z,18.63
2018-06-19T21:07:19.207Z,18.59
2018-06-19T21:09:48.407Z,18.63
2018-06-19T21:12:18.544Z,18.66
2018-06-19T21:14:48.603Z,18.58
2018-06-19T21:17:17.826Z,18.62
2018-06-19T21:19:47.620Z,18.63
2018-06-19T21:22:18.763Z,18.64
2018-06-19T21:24:48.811Z,18.61
2018-06-19T21:27:18.422Z,18.58
2018-06-19T21:29:47.626Z,18.54
2018-06-19T21:32:17.571Z,18.53
2018-06-19T21:34:47.154Z,18.60
2018-06-19T21:37:16.831Z,18.54
2018-06-19T21:39:46.347Z,18.59
2018-06-19T21:42:15.978Z,18.60
2018-06-19T21:44:45.780Z,18.48
2018-06-19T21:47:14.991Z,18.45
2018-06-19T21:49:44.219Z,18.39
2018-06-19T21:52:13.484Z,18.36
2018-06-19T21:54:43.079Z,18.44
2018-06-19T21:57:12.292Z,18.49
2018-06-19T21:59:41.536Z,18.38
2018-06-19T22:02:11.387Z,18.40
2018-06-19T22:04:40.599Z,18.39
2018-06-19T22:07:10.191Z,18.46
2018-06-19T22:09:39.548Z,18.38
2018-06-19T22:12:10.637Z,18.35
2018-06-19T22:14:41.603Z,18.31
2018-06-19T22:17:11.207Z,18.31
2018-06-19T22:19:41.402Z,18.32
2018-06-19T22:22:11.006Z,18.30
2018-06-19T22:24:41.022Z,18.18
2018-06-19T22:27:10.672Z,18.13
2018-06-19T22:29:40.230Z,18.11
2018-06-19T22:32:09.724Z,18.10
2018-06-19T22:34:39.312Z,18.07
2018-06-19T22:37:08.510Z,18.07
2018-06-19T22:39:37.868Z,18.05
2018-06-19T22:42:07.126Z,18.06
2018-06-19T22:44:37.016Z,17.96
2018-06-19T22:47:06.215Z,17.88
2018-06-19T22:49:35.468Z,17.82
2018-06-19T22:52:04.658Z,17.78
2018-06-19T22:54:34.215Z,17.72
2018-06-19T22:57:03.416Z,17.76
2018-06-19T22:59:32.647Z,17.73
2018-06-19T23:02:02.293Z,17.65
2018-06-19T23:04:31.504Z,17.64
2018-06-19T23:07:00.967Z,17.68
2018-06-19T23:09:30.627Z,17.71
2018-06-19T23:12:00.635Z,17.69
2018-06-19T23:14:29.905Z,17.71
2018-06-19T23:16:59.879Z,17.64
2018-06-19T23:19:29.878Z,17.64
2018-06-19T23:21:59.099Z,17.67
2018-06-19T23:24:29.159Z,17.62
2018-06-19T23:26:58.800Z,17.63
2018-06-19T23:29:27.992Z,17.57
2018-06-19T23:31:58.695Z,17.54
2018-06-19T23:34:27.895Z,17.53
2018-06-19T23:36:57.861Z,17.49
2018-06-19T23:39:27.131Z,17.51
2018-06-19T23:41:57.378Z,17.51
2018-06-19T23:44:26.730Z,17.44
2018-06-19T23:46:56.827Z,17.35
2018-06-19T23:49:26.402Z,17.20
2018-06-19T23:51:55.619Z,17.07
2018-06-19T23:54:24.831Z,16.96
2018-06-19T23:56:54.099Z,16.88
2018-06-19T23:59:23.406Z,16.78
